createdAt,value
2022-08-16T00:03:07.066Z,9.03
2022-08-16T00:06:20.507Z,9.37
2022-08-16T00:09:27.174Z,9.83
2022-08-16T00:12:35.283Z,9.10
2022-08-16T00:15:51.121Z,10.00
2022-08-16T00:19:03.019Z,10.60
2022-08-16T00:22:13.743Z,9.57
2022-08-16T00:26:33.860Z,9.87
2022-08-16T00:28:54.527Z,10.57
2022-08-16T00:32:07.428Z,10.67
2022-08-16T00:35:19.105Z,10.20
2022-08-16T00:38:40.768Z,9.97
2022-08-16T00:41:49.889Z,11.73
2022-08-16T00:44:59.743Z,11.23
2022-08-16T00:48:28.767Z,11.33
2022-08-16T00:51:39.076Z,10.97
2022-08-16T00:54:45.347Z,11.23
2022-08-16T00:57:58.972Z,11.23
2022-08-16T01:01:08.842Z,11.50
2022-08-16T01:04:25.768Z,11.67
2022-08-16T01:07:51.374Z,11.77
2022-08-16T01:11:02.586Z,12.93
2022-08-16T01:14:13.637Z,12.60
2022-08-16T01:17:24.214Z,12.40
2022-08-16T01:20:35.759Z,12.70
2022-08-16T01:24:01.496Z,13.10
2022-08-16T01:27:14.982Z,12.50
2022-08-16T01:30:26.133Z,11.40
2022-08-16T01:33:35.878Z,12.40
2022-08-16T01:36:42.797Z,12.30
2022-08-16T01:39:53.070Z,11.77
2022-08-16T01:43:00.351Z,12.13
2022-08-16T01:46:37.956Z,11.80
2022-08-16T01:49:45.437Z,11.30
2022-08-16T01:53:10.046Z,11.83
2022-08-16T01:56:46.375Z,10.77
2022-08-16T01:59:57.102Z,11.33
2022-08-16T02:03:04.465Z,11.87
2022-08-16T02:06:11.337Z,11.67
2022-08-16T02:09:19.510Z,12.33
2022-08-16T02:12:45.839Z,11.60
2022-08-16T02:15:59.405Z,11.93
2022-08-16T02:19:15.825Z,10.80
2022-08-16T02:22:34.197Z,11.73
2022-08-16T02:25:52.407Z,10.47
2022-08-16T02:29:04.219Z,10.83
2022-08-16T02:32:50.148Z,11.10
2022-08-16T02:35:53.617Z,9.90
2022-08-16T02:39:06.395Z,10.13
2022-08-16T02:42:13.169Z,10.47
2022-08-16T02:45:27.680Z,9.10
2022-08-16T02:48:36.283Z,9.53
2022-08-16T02:51:47.052Z,10.03
2022-08-16T02:54:55.231Z,9.50
2022-08-16T02:58:03.065Z,10.07
2022-08-16T03:01:24.287Z,10.33
2022-08-16T03:04:51.158Z,9.80
2022-08-16T03:08:01.298Z,9.80
2022-08-16T03:11:17.881Z,9.60
2022-08-16T03:14:28.087Z,10.97
2022-08-16T03:17:53.222Z,10.83
2022-08-16T03:21:03.055Z,10.20
2022-08-16T03:24:29.127Z,9.87
2022-08-16T03:27:41.111Z,10.83
2022-08-16T03:30:53.066Z,9.93
2022-08-16T03:34:06.180Z,10.10
2022-08-16T03:37:13.199Z,10.63
2022-08-16T03:40:32.795Z,10.93
2022-08-16T03:43:50.982Z,10.67
2022-08-16T03:47:01.290Z,10.60
2022-08-16T03:50:26.037Z,10.90
2022-08-16T03:53:38.069Z,10.23
2022-08-16T03:56:56.853Z,11.43
2022-08-16T04:00:35.155Z,10.40
2022-08-16T04:03:45.016Z,11.33
2022-08-16T04:06:54.512Z,11.23
2022-08-16T04:10:35.520Z,10.77
2022-08-16T04:14:01.371Z,12.30
2022-08-16T04:17:01.693Z,12.77
2022-08-16T04:20:29.595Z,11.67
2022-08-16T04:23:45.439Z,11.63
2022-08-16T04:26:53.939Z,12.13
2022-08-16T04:30:03.813Z,11.77
2022-08-16T04:33:15.433Z,11.50
2022-08-16T04:36:23.613Z,11.67
2022-08-16T04:39:46.182Z,11.23
2022-08-16T04:42:55.822Z,12.50
2022-08-16T04:46:05.857Z,12.40
2022-08-16T04:49:43.735Z,11.77
2022-08-16T04:52:55.694Z,11.83
2022-08-16T04:56:11.586Z,12.77
2022-08-16T04:59:18.617Z,12.73
2022-08-16T05:02:41.577Z,13.00
2022-08-16T05:05:59.172Z,13.17
2022-08-16T05:09:12.674Z,11.63
2022-08-16T05:12:22.041Z,12.17
2022-08-16T05:15:38.111Z,12.70
2022-08-16T05:18:44.677Z,12.23
2022-08-16T05:21:55.542Z,13.43
2022-08-16T05:25:09.263Z,11.77
2022-08-16T05:28:30.948Z,10.70
2022-08-16T05:31:48.356Z,10.37
2022-08-16T05:35:00.812Z,10.47
2022-08-16T05:38:32.286Z,10.80
2022-08-16T05:41:45.464Z,10.33
2022-08-16T05:44:55.805Z,10.30
2022-08-16T05:48:07.418Z,9.90
2022-08-16T05:51:35.794Z,8.90
2022-08-16T05:54:58.731Z,9.10
2022-08-16T05:58:31.633Z,9.37
2022-08-16T06:01:42.117Z,10.18
2022-08-16T06:04:48.364Z,10.10
2022-08-16T06:07:58.273Z,9.57
2022-08-16T06:11:13.501Z,9.83
2022-08-16T06:14:23.529Z,9.27
2022-08-16T06:17:43.375Z,8.80
2022-08-16T06:21:03.271Z,8.43
2022-08-16T06:24:54.007Z,8.85
2022-08-16T06:27:40.926Z,7.93
2022-08-16T06:30:47.315Z,7.65
2022-08-16T06:33:59.288Z,7.38
2022-08-16T06:37:12.622Z,7.47
2022-08-16T06:40:33.281Z,6.75
2022-08-16T06:43:40.336Z,7.72
2022-08-16T06:46:53.785Z,7.07
2022-08-16T06:50:03.178Z,6.55
2022-08-16T06:53:24.557Z,7.00
2022-08-16T06:56:37.570Z,6.55
2022-08-16T06:59:53.075Z,7.45
2022-08-16T07:03:26.944Z,7.45
2022-08-16T07:06:38.348Z,7.72
2022-08-16T07:09:51.418Z,7.95
2022-08-16T07:13:03.389Z,7.40
2022-08-16T07:16:20.468Z,8.30
2022-08-16T07:20:01.803Z,8.55
2022-08-16T07:22:59.553Z,8.27
2022-08-16T07:26:25.406Z,7.75
2022-08-16T07:29:34.766Z,9.65
2022-08-16T07:32:42.406Z,8.60
2022-08-16T07:35:58.176Z,8.52
2022-08-16T07:39:10.034Z,8.85
2022-08-16T07:42:20.329Z,9.32
2022-08-16T07:45:34.331Z,9.15
2022-08-16T07:48:41.329Z,9.27
2022-08-16T07:51:56.288Z,8.23
2022-08-16T07:55:14.106Z,7.70
2022-08-16T07:58:34.236Z,8.30
2022-08-16T08:01:44.626Z,7.85
2022-08-16T08:04:51.857Z,9.07
2022-08-16T08:07:59.516Z,8.98
2022-08-16T08:11:13.395Z,10.07
2022-08-16T08:14:29.637Z,8.82
2022-08-16T08:17:42.841Z,9.05
2022-08-16T08:20:59.429Z,10.25
2022-08-16T08:24:15.558Z,9.40
2022-08-16T08:27:25.526Z,9.55
2022-08-16T08:31:00.583Z,9.27
2022-08-16T08:34:01.119Z,8.98
2022-08-16T08:37:12.130Z,8.85
2022-08-16T08:40:19.622Z,8.35
2022-08-16T08:43:41.637Z,8.68
2022-08-16T08:46:59.745Z,9.50
2022-08-16T08:50:11.169Z,11.40
2022-08-16T08:53:19.465Z,8.70
2022-08-16T08:56:45.918Z,9.48
2022-08-16T09:00:31.676Z,9.60
2022-08-16T09:03:57.433Z,8.90
2022-08-16T09:07:04.207Z,8.93
2022-08-16T09:10:20.751Z,8.73
2022-08-16T09:13:32.892Z,8.95
2022-08-16T09:17:01.494Z,9.20
2022-08-16T09:20:10.582Z,8.23
2022-08-16T09:23:22.361Z,8.38
2022-08-16T09:26:45.480Z,7.78
2022-08-16T09:30:00.281Z,7.80
2022-08-16T09:33:10.413Z,8.35
2022-08-16T09:36:31.820Z,8.85
2022-08-16T09:39:41.609Z,8.63
2022-08-16T09:42:58.695Z,9.10
2022-08-16T09:46:49.040Z,9.15
2022-08-16T09:49:37.602Z,8.90
2022-08-16T09:52:48.025Z,9.45
2022-08-16T09:55:58.647Z,8.90
2022-08-16T09:59:08.689Z,8.63
2022-08-16T10:02:26.302Z,8.20
2022-08-16T10:05:38.131Z,8.63
2022-08-16T10:09:04.324Z,8.30
2022-08-16T10:12:28.281Z,7.78
2022-08-16T10:15:35.834Z,8.10
2022-08-16T10:19:01.497Z,8.60
2022-08-16T10:22:15.383Z,7.75
2022-08-16T10:27:00.650Z,7.70
2022-08-16T10:28:50.932Z,8.18
2022-08-16T10:31:57.249Z,8.80
2022-08-16T10:35:06.503Z,8.50
2022-08-16T10:38:27.440Z,8.85
2022-08-16T10:41:34.941Z,8.68
2022-08-16T10:44:42.471Z,8.43
2022-08-16T10:48:02.633Z,7.78
2022-08-16T10:51:10.190Z,8.07
2022-08-16T10:54:28.706Z,8.73
2022-08-16T10:57:36.052Z,8.80
2022-08-16T11:00:46.146Z,7.93
2022-08-16T11:03:54.514Z,8.35
2022-08-16T11:07:08.656Z,8.43
2022-08-16T11:14:10.859Z,9.15
2022-08-16T11:17:17.528Z,7.97
2022-08-16T11:20:41.458Z,8.60
2022-08-16T11:23:58.290Z,8.15
2022-08-16T11:27:32.519Z,7.93
2022-08-16T11:30:38.973Z,8.20
2022-08-16T11:33:53.867Z,7.18
2022-08-16T11:37:02.914Z,7.22
2022-08-16T11:40:14.764Z,6.65
2022-08-16T11:43:33.849Z,7.50
2022-08-16T11:46:45.050Z,7.18
2022-08-16T11:49:53.369Z,8.20
2022-08-16T11:53:00.397Z,7.47
2022-08-16T11:56:09.361Z,7.50
2022-08-16T11:59:19.367Z,7.53
2022-08-16T12:02:33.027Z,7.13
2022-08-16T12:05:41.720Z,7.13
2022-08-16T12:08:50.805Z,5.72
2022-08-16T12:11:57.927Z,5.70
2022-08-16T12:15:07.656Z,6.70
2022-08-16T12:18:20.478Z,6.90
2022-08-16T12:21:26.818Z,7.35
2022-08-16T12:24:43.148Z,7.80
2022-08-16T12:27:50.305Z,7.10
2022-08-16T12:31:00.526Z,6.47
2022-08-16T12:34:08.111Z,6.90
2022-08-16T12:37:15.757Z,6.13
2022-08-16T12:40:32.903Z,6.25
2022-08-16T12:43:45.290Z,5.78
2022-08-16T12:47:06.157Z,6.00
2022-08-16T12:50:14.926Z,5.78
2022-08-16T12:53:22.104Z,7.10
2022-08-16T12:56:31.519Z,6.18
2022-08-16T12:59:38.588Z,6.47
2022-08-16T13:02:50.244Z,6.93
2022-08-16T13:05:56.754Z,7.13
2022-08-16T13:09:20.314Z,6.53
2022-08-16T13:12:28.548Z,7.07
2022-08-16T13:15:36.209Z,7.00
2022-08-16T13:19:00.562Z,6.47
2022-08-16T13:22:08.852Z,6.85
2022-08-16T13:25:28.736Z,7.57
2022-08-16T13:28:36.035Z,7.07
2022-08-16T13:31:42.953Z,7.32
2022-08-16T13:34:52.774Z,7.38
2022-08-16T13:37:58.965Z,7.32
2022-08-16T13:41:08.504Z,7.63
2022-08-16T13:44:15.570Z,7.15
2022-08-16T13:47:22.521Z,7.28
2022-08-16T13:50:51.357Z,6.88
2022-08-16T13:54:03.840Z,6.70
2022-08-16T13:57:11.586Z,6.85
2022-08-16T14:00:21.340Z,7.43
2022-08-16T14:03:28.926Z,7.18
2022-08-16T14:06:39.843Z,7.00
2022-08-16T14:09:47.017Z,6.80
2022-08-16T14:12:57.302Z,7.70
2022-08-16T14:16:03.456Z,7.10
2022-08-16T14:19:19.041Z,7.03
2022-08-16T14:22:35.632Z,7.28
2022-08-16T14:25:53.576Z,5.95
2022-08-16T14:29:03.511Z,6.78
2022-08-16T14:32:13.237Z,6.43
2022-08-16T14:35:50.232Z,6.15
2022-08-16T14:39:00.758Z,6.50
2022-08-16T14:42:10.813Z,5.72
2022-08-16T14:45:23.587Z,6.38
2022-08-16T14:48:29.975Z,6.72
2022-08-16T14:51:36.952Z,6.30
2022-08-16T14:54:48.392Z,6.18
2022-08-16T14:57:57.493Z,7.05
2022-08-16T15:01:04.860Z,6.88
2022-08-16T15:04:12.321Z,6.05
2022-08-16T15:07:50.690Z,6.20
2022-08-16T15:11:00.995Z,5.72
2022-08-16T15:14:08.028Z,6.18
2022-08-16T15:17:15.990Z,7.10
2022-08-16T15:20:26.248Z,6.75
2022-08-16T15:23:34.655Z,6.07
2022-08-16T15:26:47.111Z,6.00
2022-08-16T15:29:54.232Z,6.07
2022-08-16T15:33:06.452Z,6.60
2022-08-16T15:36:17.745Z,6.15
2022-08-16T15:39:31.805Z,5.80
2022-08-16T15:42:54.041Z,5.85
2022-08-16T15:46:35.613Z,6.30
2022-08-16T15:49:46.776Z,6.07
2022-08-16T15:53:00.389Z,5.65
2022-08-16T15:56:09.471Z,6.30
2022-08-16T15:59:20.653Z,6.05
2022-08-16T16:02:30.842Z,6.82
2022-08-16T16:05:37.605Z,6.20
2022-08-16T16:08:44.719Z,6.25
2022-08-16T16:11:52.043Z,6.22
2022-08-16T16:15:03.342Z,6.30
2022-08-16T16:18:10.912Z,6.55
2022-08-16T16:21:20.321Z,6.68
2022-08-16T16:24:31.383Z,5.78
2022-08-16T16:27:38.439Z,5.88
2022-08-16T16:30:48.070Z,5.95
2022-08-16T16:33:59.007Z,5.90
2022-08-16T16:37:05.269Z,6.07
2022-08-16T16:40:28.900Z,5.93
2022-08-16T16:43:40.489Z,7.20
2022-08-16T16:46:56.676Z,7.13
2022-08-16T16:50:06.705Z,7.55
2022-08-16T16:53:17.488Z,7.57
2022-08-16T16:56:31.105Z,7.00
2022-08-16T16:59:36.628Z,7.93
2022-08-16T17:02:49.609Z,8.18
2022-08-16T17:06:03.243Z,7.35
2022-08-16T17:09:16.047Z,8.15
2022-08-16T17:12:46.359Z,8.13
2022-08-16T17:15:52.168Z,7.78
2022-08-16T17:19:16.195Z,7.80
2022-08-16T17:22:32.940Z,8.13
2022-08-16T17:25:40.099Z,7.57
2022-08-16T17:28:59.413Z,8.15
2022-08-16T17:32:47.458Z,8.65
2022-08-16T17:35:45.820Z,8.63
2022-08-16T17:39:03.179Z,8.38
2022-08-16T17:42:16.075Z,8.95
2022-08-16T17:45:23.311Z,8.93
2022-08-16T17:48:31.299Z,8.63
2022-08-16T17:51:40.883Z,9.88
2022-08-16T17:54:47.001Z,9.50
2022-08-16T17:57:54.382Z,10.52
2022-08-16T18:01:03.399Z,9.52
2022-08-16T18:04:10.330Z,10.63
2022-08-16T18:07:19.091Z,10.10
2022-08-16T18:10:33.143Z,9.57
2022-08-16T18:13:43.416Z,10.65
2022-08-16T18:16:51.221Z,9.73
2022-08-16T18:19:57.592Z,10.13
2022-08-16T18:23:12.397Z,9.63
2022-08-16T18:26:20.941Z,10.27
2022-08-16T18:29:27.661Z,9.65
2022-08-16T18:32:42.746Z,10.27
2022-08-16T18:35:52.105Z,10.80
2022-08-16T18:39:06.165Z,9.55
2022-08-16T18:42:17.842Z,9.38
2022-08-16T18:45:24.047Z,9.95
2022-08-16T18:48:42.210Z,9.48
2022-08-16T18:51:49.362Z,11.20
2022-08-16T18:55:02.524Z,12.00
2022-08-16T18:58:19.835Z,9.85
2022-08-16T19:01:26.670Z,9.30
2022-08-16T19:04:55.075Z,10.43
2022-08-16T19:07:59.550Z,10.25
2022-08-16T19:11:14.051Z,10.77
2022-08-16T19:14:23.708Z,10.75
2022-08-16T19:17:29.690Z,12.00
2022-08-16T19:20:37.333Z,10.40
2022-08-16T19:23:44.628Z,10.48
2022-08-16T19:26:54.234Z,11.88
2022-08-16T19:30:03.606Z,10.80
2022-08-16T19:33:11.581Z,13.02
2022-08-16T19:36:32.171Z,12.57
2022-08-16T19:39:42.073Z,11.98
2022-08-16T19:42:51.314Z,11.50
2022-08-16T19:45:58.200Z,12.30
2022-08-16T19:49:04.632Z,12.88
2022-08-16T19:52:19.156Z,12.88
2022-08-16T19:55:25.078Z,12.90
2022-08-16T19:58:34.678Z,12.88
2022-08-16T20:01:42.634Z,12.88
2022-08-16T20:04:49.688Z,12.82
2022-08-16T20:07:56.728Z,13.88
2022-08-16T20:11:09.228Z,13.90
2022-08-16T20:14:25.786Z,13.07
2022-08-16T20:17:33.019Z,12.88
2022-08-16T20:20:40.731Z,12.30
2022-08-16T20:23:47.805Z,12.60
2022-08-16T20:26:54.147Z,13.60
2022-08-16T20:30:10.710Z,14.13
2022-08-16T20:33:18.060Z,13.80
2022-08-16T20:36:24.945Z,13.48
2022-08-16T20:39:30.921Z,16.42
2022-08-16T20:42:37.753Z,13.73
2022-08-16T20:45:49.109Z,14.00
2022-08-16T20:48:56.134Z,14.68
2022-08-16T20:52:03.382Z,13.88
2022-08-16T20:55:11.209Z,15.07
2022-08-16T20:58:17.277Z,14.68
2022-08-16T21:01:27.351Z,13.18
2022-08-16T21:04:52.177Z,14.68
2022-08-16T21:07:59.202Z,15.05
2022-08-16T21:11:07.763Z,13.20
2022-08-16T21:14:14.643Z,12.98
2022-08-16T21:17:23.917Z,12.00
2022-08-16T21:20:30.876Z,12.95
2022-08-16T21:23:37.182Z,12.65
2022-08-16T21:26:47.437Z,13.57
2022-08-16T21:30:03.609Z,14.10
2022-08-16T21:33:15.621Z,13.38
2022-08-16T21:36:35.067Z,13.85
2022-08-16T21:39:43.290Z,13.18
2022-08-16T21:42:49.371Z,14.05
2022-08-16T21:45:57.281Z,14.32
2022-08-16T21:49:06.970Z,14.43
2022-08-16T21:52:22.685Z,14.70
2022-08-16T21:55:33.493Z,14.38
2022-08-16T21:58:40.790Z,16.05
2022-08-16T22:01:49.815Z,14.15
2022-08-16T22:05:00.622Z,14.73
2022-08-16T22:08:08.583Z,14.82
2022-08-16T22:11:15.397Z,14.63
2022-08-16T22:14:21.590Z,14.73
2022-08-16T22:17:28.381Z,14.38
2022-08-16T22:20:38.555Z,14.80
2022-08-16T22:23:45.302Z,15.07
2022-08-16T22:27:00.985Z,15.90
2022-08-16T22:30:09.705Z,14.80
2022-08-16T22:33:19.259Z,14.48
2022-08-16T22:36:29.530Z,14.95
2022-08-16T22:39:35.874Z,14.13
2022-08-16T22:42:50.779Z,14.90
2022-08-16T22:45:57.411Z,14.70
2022-08-16T22:49:04.417Z,14.03
2022-08-16T22:52:13.576Z,14.90
2022-08-16T22:55:41.983Z,14.27
2022-08-16T22:58:48.763Z,15.43
2022-08-16T23:01:56.025Z,15.00
2022-08-16T23:05:03.233Z,14.68
2022-08-16T23:08:15.884Z,14.73
2022-08-16T23:11:38.379Z,16.95
2022-08-16T23:14:45.423Z,16.37
2022-08-16T23:17:52.284Z,17.57
2022-08-16T23:21:03.698Z,15.77
2022-08-16T23:24:13.338Z,15.53
2022-08-16T23:27:20.443Z,15.83
2022-08-16T23:30:28.048Z,16.20
2022-08-16T23:33:35.283Z,15.80
2022-08-16T23:36:41.234Z,16.27
2022-08-16T23:39:54.542Z,17.33
2022-08-16T23:43:06.698Z,16.07
2022-08-16T23:46:17.167Z,16.07
2022-08-16T23:49:58.906Z,16.00
2022-08-16T23:53:07.340Z,15.97
2022-08-16T23:56:17.744Z,15.20
2022-08-16T23:59:24.492Z,15.20
